Saturday, January 19, 2019, 6:47 PM CST
Back to Local

KENW, Kenosha Regional Airport

Location: Kenosha, WI, United States Lat: 42.6
Local Time: 6:47 PM CST ( 0:47 GMT) Lon: -87.933
Time Zone: US/Central Elev: 741 ft

Show me the last for .
Show Decoded

2019-01-19 18:20 METAR KENW 200020Z 36015G26KT 3SM -SN BKN017 OVC023 M07/M10 A3008 RMK AO2 PK WND
                 36026/0020 P0000 T10721100 $ =
2019-01-19 18:09 METAR KENW 200009Z 36012G19KT 1 1/2SM -SN BR BKN019 OVC025 M07/M09 A3008 RMK AO2
                 P0000 T10721094 $ =
2019-01-19 17:53 METAR KENW 192353Z 36014G22KT 2 1/2SM -SN BKN023 OVC031 M07/M10 A3007 RMK AO2 PK
                 WND 36026/2316 SLP196 P0000 60000 T10721100 11039 21072 53012 $ =
2019-01-19 17:02 METAR KENW 192302Z 36016G25KT 3SM -SN OVC020 M07/M09 A3006 RMK AO2 P0000
                 T10671094 $ =
2019-01-19 16:53 METAR KENW 192253Z 36012G23KT 1 1/2SM -SN BR OVC020 M07/M09 A3006 RMK AO2 PK WND
                 36028/2204 SLP191 P0000 T10671089 $ =
2019-01-19 16:50 METAR KENW 192250Z 36012G23KT 1 3/4SM -SN BR OVC020 M07/M09 A3006 RMK AO2 PK WND
                 36028/2204 P0000 $ =
2019-01-19 16:12 METAR KENW 192212Z 36013G28KT 4SM -SN OVC018 M06/M09 A3005 RMK AO2 PK WND
                 36028/2204 P0000 T10611089 $ =
2019-01-19 15:53 METAR KENW 192153Z 01015G24KT 2 1/2SM -SN BR OVC016 M06/M08 A3004 RMK AO2
                 SNB2059 SLP185 P0000 T10611083 $ =
2019-01-19 14:53 METAR KENW 192053Z 01014G20KT 9SM OVC019 M04/M08 A3004 RMK AO2 SLP183 60000
                 T10441078 55016 $ =
2019-01-19 13:53 METAR KENW 191953Z 03014G21KT 10SM OVC016 M04/M08 A3004 RMK AO2 SLP181 T10441078
                 $ =
2019-01-19 12:53 METAR KENW 191853Z 03014G24KT 9SM SCT018 OVC024 M04/M07 A3005 RMK AO2 SNE1755
                 SLP187 P0000 T10441072 $ =
2019-01-19 11:53 METAR KENW 191753Z 04015G23KT 9SM -SN OVC020 M04/M07 A3009 RMK AO2 PK WND
                 03028/1729 SNE06B45 SLP199 P0000 60000 T10391072 11033 21044 58004 $ =
2019-01-19 10:53 METAR KENW 191653Z 05018KT 3SM -SN FEW016 BKN024 OVC029 M04/M07 A3010 RMK AO2
                 SLP204 P0000 T10391067 $ =
2019-01-19 09:53 METAR KENW 191553Z 03015G24KT 3SM -SN BR BKN015 OVC024 M04/M06 A3010 RMK AO2
                 SLP205 P0000 T10391061 $ =
2019-01-19 09:00 METAR KENW 191500Z 04015G23KT 1SM -SN BR BKN012 OVC019 M04/M06 A3010 RMK AO2
                 P0000 T10441056 $ =
2019-01-19 08:53 METAR KENW 191453Z 05017KT 1 1/4SM -SN BR SCT010 OVC027 M04/M06 A3010 RMK AO2
                 SLP203 P0000 60000 T10391056 50002 $ =
2019-01-19 08:32 METAR KENW 191432Z 04014G24KT 1 1/4SM -SN BR SCT010 OVC027 M04/M06 A3009 RMK AO2
                 P0000 T10391056 $ =
2019-01-19 08:19 METAR KENW 191419Z 04015KT 3/4SM -SN BR SCT010 OVC027 M04/M05 A3009 RMK AO2
                 P0000 T10391050 $ =
2019-01-19 07:53 METAR KENW 191353Z 04015KT 1SM -SN BR SCT010 OVC027 M04/M06 A3010 RMK AO2 SLP205
                 P0000 T10391056 $ =
2019-01-19 06:53 METAR KENW 191253Z 04014G23KT 1 1/2SM -SN BR SCT010 BKN015 OVC020 M04/M05 A3010
                 RMK AO2 SLP203 P0000 T10391050 $ =
2019-01-19 06:46 METAR KENW 191246Z AUTO 04013G22KT 1 3/4SM -SN BR SCT010 BKN013 OVC028 M04/M05
                 A3010 RMK AO2 P0000 T10391050 $ =
2019-01-19 06:32 METAR KENW 191232Z AUTO 05015KT 2SM -SN BR SCT010 BKN015 OVC023 M04/M05 A3010
                 RMK AO2 P0000 T10391050 $ =
2019-01-19 06:16 METAR KENW 191216Z AUTO 04014KT 1SM -SN BR BKN013 OVC025 M04/M05 A3010 RMK AO2
                 P0000 T10391050 $ =
2019-01-19 06:04 METAR KENW 191204Z AUTO 05015G23KT 3/4SM -SN BR VV011 M04/M05 A3009 RMK AO2
                 P0000 T10391050 $ =
2019-01-19 05:53 METAR KENW 191153Z AUTO 05015G24KT 1 1/4SM -SN BR BKN012 OVC019 M03/M05 A3009
                 RMK AO2 SLP201 P0000 60000 T10331050 11028 21039 55007 $ =
2019-01-19 05:50 METAR KENW 191150Z AUTO 04013G23KT 1 3/4SM -SN BR BKN012 OVC019 M03/M05 A3009
                 RMK AO2 P0000 $ =
2019-01-19 05:40 METAR KENW 191140Z AUTO 04018G23KT 4SM -SN BR BKN010 OVC020 M03/M05 A3009 RMK
                 AO2 P0000 T10331050 $ =
2019-01-19 05:23 METAR KENW 191123Z AUTO 04015KT 2 1/2SM -SN BR BKN009 BKN014 OVC023 M03/M04
                 A3008 RMK AO2 P0000 T10331044 $ =
2019-01-19 05:08 METAR KENW 191108Z AUTO 05016G25KT 1 1/2SM -SN BR BKN009 BKN014 OVC019 M03/M04
                 A3008 RMK AO2 P0000 T10331044 $ =
2019-01-19 04:53 METAR KENW 191053Z AUTO 05016G24KT 1SM -SN BR BKN011 OVC019 M03/M04 A3009 RMK
                 AO2 PK WND 05026/1009 SLP200 P0000 T10331044 $ =
2019-01-19 04:48 METAR KENW 191048Z AUTO 06017G24KT 1SM -SN BR OVC012 M03/M04 A3009 RMK AO2 PK
                 WND 05026/1009 P0000 $ =
2019-01-19 04:44 METAR KENW 191044Z AUTO 05015G25KT 3/4SM -SN BR BKN008 OVC012 M03/M04 A3009 RMK
                 AO2 PK WND 05026/1009 P0000 T10331044 $ =
2019-01-19 04:30 METAR KENW 191030Z AUTO 05017KT 1SM -SN BR SCT008 OVC013 M03/M04 A3008 RMK AO2
                 PK WND 05026/1009 P0000 T10331044 $ =
2019-01-19 04:14 METAR KENW 191014Z AUTO 06018G26KT 3/4SM -SN BR VV011 M03/M04 A3009 RMK AO2 PK
                 WND 05026/1009 P0000 T10331044 $ =
2019-01-19 03:53 METAR KENW 190953Z AUTO 06020G26KT 3/4SM -SN BR VV009 M03/M04 A3010 RMK AO2 PK
                 WND 06027/0901 SLP204 P0000 T10331044 $ =
2019-01-19 03:35 METAR KENW 190935Z AUTO 06018KT 3/4SM -SN BR VV011 M03/M04 A3011 RMK AO2 PK WND
                 06027/0901 P0000 T10331044 $ =
2019-01-19 03:27 METAR KENW 190927Z AUTO 06019KT 1SM -SN BR VV012 M03/M04 A3011 RMK AO2 PK WND
                 06027/0901 P0000 T10331044 $ =
2019-01-19 03:17 METAR KENW 190917Z AUTO 06019KT 3/4SM -SN BR FEW008 OVC012 M03/M04 A3011 RMK AO2
                 PK WND 06027/0901 P0000 T10331044 $ =
2019-01-19 03:04 METAR KENW 190904Z AUTO 06019G27KT 1SM -SN BR FEW007 OVC011 M03/M04 A3011 RMK
                 AO2 PK WND 06027/0901 P0000 T10331044 $ =
2019-01-19 02:53 METAR KENW 190853Z AUTO 06018G25KT 3/4SM -SN BR VV009 M03/M04 A3011 RMK AO2 PK
                 WND 06026/0802 SLP208 P0000 60000 T10331044 56005 $ =
2019-01-19 02:38 METAR KENW 190838Z AUTO 06019G26KT 3/4SM -SN BR SCT008 OVC012 M03/M04 A3011 RMK
                 AO2 PK WND 06026/0802 P0000 T10331039 $ =
2019-01-19 02:12 METAR KENW 190812Z AUTO 06016G25KT 1SM -SN BR FEW007 OVC011 M03/M04 A3012 RMK
                 AO2 PK WND 06026/0802 P0000 T10331044 $ =
2019-01-19 02:00 METAR KENW 190800Z AUTO 06016KT 3/4SM -SN BR OVC009 M03/M04 A3012 RMK AO2 P0000
                 T10331039 $ =
2019-01-19 01:53 METAR KENW 190753Z AUTO 05017KT 3/4SM -SN BR SCT006 OVC012 M03/M04 A3012 RMK AO2
                 SLP210 P0000 T10331039 $ =
2019-01-19 01:50 METAR KENW 190750Z AUTO 06015KT 3/4SM -SN BR BKN008 OVC012 M03/M04 A3012 RMK AO2
                 P0000 $ =
2019-01-19 01:19 METAR KENW 190719Z AUTO 07015KT 1 1/4SM -SN BR SCT006 OVC018 M03/M04 A3012 RMK
                 AO2 P0000 T10331044 $ =
2019-01-19 01:10 METAR KENW 190710Z AUTO 07015KT 1SM -SN BR SCT006 BKN014 OVC022 M03/M04 A3013
                 RMK AO2 P0000 T10331039 $ =
2019-01-19 00:53 METAR KENW 190653Z AUTO 06012G22KT 3/4SM -SN BR VV008 M03/M04 A3013 RMK AO2
                 SLP213 P0000 T10331039 $ =
2019-01-18 23:53 METAR KENW 190553Z AUTO 05014KT 1/2SM SN FZFG VV008 M04/M04 A3014 RMK AO2 SLP217
                 P0000 60000 T10391044 11039 21044 410061044 58013 $ =
2019-01-18 22:53 METAR KENW 190453Z AUTO 07015KT 1/2SM SN FZFG VV006 M04/M05 A3016 RMK AO2 SLP224
                 P0000 T10391050 $ =
2019-01-18 21:58 METAR KENW 190358Z AUTO 06014KT 3/4SM -SN BR VV009 M04/M05 A3018 RMK AO2 P0000
                 T10391050 =
2019-01-18 21:53 METAR KENW 190353Z AUTO 07013KT 1SM -SN BR FEW007 OVC012 M04/M05 A3018 RMK AO2
                 SLP230 P0000 T10391050 =
2019-01-18 21:49 METAR KENW 190349Z AUTO 07016KT 1SM -SN BR FEW008 OVC012 M04/M05 A3018 RMK AO2
                 P0000 =
2019-01-18 21:22 METAR KENW 190322Z AUTO 05014KT 1SM -SN BR VV010 M04/M05 A3017 RMK AO2 P0000
                 T10391050 =
2019-01-18 20:53 METAR KENW 190253Z 06011KT 3/4SM -SN BR VV009 M04/M05 A3017 RMK AO2 SLP229 P0000
                 60000 T10391050 53004 =
2019-01-18 20:31 METAR KENW 190231Z 05012KT 3/4SM -SN BR BKN009 OVC013 M04/M05 A3016 RMK AO2
                 P0000 T10391050 =
2019-01-18 20:00 METAR KENW 190200Z 05013KT 3/4SM -SN BR VV010 M04/M05 A3015 RMK AO2 P0000
                 T10391050 =
2019-01-18 19:53 METAR KENW 190153Z 05013G21KT 3/4SM -SN BR VV009 M04/M05 A3015 RMK AO2 SLP221
                 P0000 T10441050 =
2019-01-18 19:19 METAR KENW 190119Z 06012KT 3/4SM -SN BR VV009 M04/M06 A3016 RMK AO2 P0000
                 T10441056 =
2019-01-18 18:53 METAR KENW 190053Z 05012KT 3/4SM -SN BR VV011 M04/M06 A3016 RMK AO2 SLP223 P0000
                 T10441056 =

Support USWX by starting your Amazon purchase here.